createdAt,value
2023-03-19T00:00:33.368Z,4.01
2023-03-19T00:03:00.096Z,4.04
2023-03-19T00:05:26.916Z,4.07
2023-03-19T00:07:53.393Z,4.06
2023-03-19T00:10:19.944Z,4.00
2023-03-19T00:12:46.534Z,4.02
2023-03-19T00:15:14.666Z,3.99
2023-03-19T00:17:44.409Z,4.01
2023-03-19T00:20:12.521Z,4.03
2023-03-19T00:22:39.917Z,4.08
2023-03-19T00:25:08.148Z,4.05
2023-03-19T00:27:34.819Z,3.98
2023-03-19T00:30:02.591Z,3.95
2023-03-19T00:32:30.068Z,3.93
2023-03-19T00:34:56.717Z,3.91
2023-03-19T00:37:23.449Z,3.89
2023-03-19T00:39:50.311Z,3.90
2023-03-19T00:42:16.837Z,3.87
2023-03-19T00:44:43.438Z,3.95
2023-03-19T00:47:09.935Z,4.00
2023-03-19T00:49:36.840Z,4.05
2023-03-19T00:52:03.447Z,4.02
2023-03-19T00:54:32.212Z,3.92
2023-03-19T00:56:59.057Z,3.83
2023-03-19T00:59:25.751Z,3.77
2023-03-19T01:01:52.570Z,3.71
2023-03-19T01:04:19.216Z,3.72
2023-03-19T01:06:46.242Z,3.70
2023-03-19T01:09:12.766Z,3.65
2023-03-19T01:11:39.646Z,3.52
2023-03-19T01:14:06.368Z,3.45
2023-03-19T01:16:34.735Z,3.40
2023-03-19T01:19:02.421Z,3.37
2023-03-19T01:21:31.084Z,3.37
2023-03-19T01:23:58.528Z,3.40
2023-03-19T01:26:25.481Z,3.40
2023-03-19T01:28:52.458Z,3.42
2023-03-19T01:31:19.252Z,3.35
2023-03-19T01:33:46.473Z,3.25
2023-03-19T01:36:13.706Z,3.17
2023-03-19T01:38:40.305Z,3.17
2023-03-19T01:41:07.605Z,3.09
2023-03-19T01:43:34.111Z,3.05
2023-03-19T01:46:14.560Z,3.03
2023-03-19T01:48:46.066Z,2.99
2023-03-19T01:51:16.662Z,2.94
2023-03-19T01:53:47.620Z,2.92
2023-03-19T01:56:29.414Z,2.89
2023-03-19T01:58:59.017Z,2.89
2023-03-19T02:01:28.209Z,2.83
2023-03-19T02:03:56.450Z,2.75
2023-03-19T02:06:23.897Z,2.65
2023-03-19T02:08:51.749Z,2.66
2023-03-19T02:11:19.323Z,2.64
2023-03-19T02:13:47.150Z,2.65
2023-03-19T02:16:15.574Z,2.67
2023-03-19T02:18:42.879Z,2.60
2023-03-19T02:21:16.305Z,2.65
2023-03-19T02:23:49.585Z,2.64
2023-03-19T02:26:18.427Z,2.60
2023-03-19T02:28:47.556Z,2.56
2023-03-19T02:31:15.048Z,2.52
2023-03-19T02:33:41.907Z,2.43
2023-03-19T02:36:18.039Z,2.41
2023-03-19T02:38:47.753Z,2.38
2023-03-19T02:41:14.291Z,2.38
2023-03-19T02:43:42.088Z,2.37
2023-03-19T02:46:13.168Z,2.39
2023-03-19T02:48:41.347Z,2.37
2023-03-19T02:51:08.680Z,2.37
2023-03-19T02:53:35.455Z,2.45
2023-03-19T02:56:02.370Z,2.51
2023-03-19T02:58:28.877Z,2.45
2023-03-19T03:00:55.502Z,2.42
2023-03-19T03:03:22.081Z,2.41
2023-03-19T03:05:48.629Z,2.44
2023-03-19T03:08:15.790Z,2.45
2023-03-19T03:10:42.535Z,2.49
2023-03-19T03:13:09.340Z,2.51
2023-03-19T03:15:35.918Z,2.53
2023-03-19T03:18:02.436Z,2.52
2023-03-19T03:20:29.196Z,2.54
2023-03-19T03:22:55.725Z,2.50
2023-03-19T03:25:22.577Z,2.51
2023-03-19T03:27:49.129Z,2.43
2023-03-19T03:30:16.257Z,2.32
2023-03-19T03:32:43.341Z,2.28
2023-03-19T03:35:10.274Z,2.28
2023-03-19T03:37:38.132Z,2.22
2023-03-19T03:40:09.569Z,2.24
2023-03-19T03:42:37.438Z,2.28
2023-03-19T03:45:04.977Z,2.25
2023-03-19T03:47:32.245Z,2.20
2023-03-19T03:49:58.860Z,2.11
2023-03-19T03:52:25.475Z,2.11
2023-03-19T03:54:51.959Z,2.10
2023-03-19T03:57:18.588Z,2.09
2023-03-19T03:59:45.082Z,2.11
2023-03-19T04:02:11.882Z,2.11
2023-03-19T04:04:38.412Z,2.05
2023-03-19T04:07:04.963Z,2.04
2023-03-19T04:09:31.486Z,2.03
2023-03-19T04:11:57.989Z,2.01
2023-03-19T04:14:24.674Z,2.02
2023-03-19T04:16:51.314Z,2.07
2023-03-19T04:19:17.860Z,2.10
2023-03-19T04:21:44.953Z,2.10
2023-03-19T04:24:11.732Z,2.10
2023-03-19T04:26:38.794Z,2.05
2023-03-19T04:29:06.404Z,2.02
2023-03-19T04:31:33.223Z,1.92
2023-03-19T04:34:00.325Z,1.88
2023-03-19T04:36:26.991Z,1.93
2023-03-19T04:38:53.694Z,1.97
2023-03-19T04:41:20.440Z,1.97
2023-03-19T04:43:46.948Z,2.02
2023-03-19T04:46:13.534Z,2.02
2023-03-19T04:48:40.075Z,2.01
2023-03-19T04:51:09.215Z,1.99
2023-03-19T04:53:37.819Z,2.05
2023-03-19T04:56:04.720Z,2.07
2023-03-19T04:58:31.218Z,2.04
2023-03-19T05:00:57.975Z,1.90
2023-03-19T05:03:24.563Z,1.79
2023-03-19T05:05:53.453Z,1.79
2023-03-19T05:08:20.070Z,1.78
2023-03-19T05:10:46.582Z,1.74
2023-03-19T05:13:13.218Z,1.73
2023-03-19T05:15:43.465Z,1.73
2023-03-19T05:18:10.734Z,1.74
2023-03-19T05:20:37.925Z,1.73
2023-03-19T05:23:04.501Z,1.73
2023-03-19T05:25:31.072Z,1.72
2023-03-19T05:27:57.588Z,1.70
2023-03-19T05:30:24.169Z,1.76
2023-03-19T05:32:50.844Z,1.85
2023-03-19T05:35:17.489Z,1.86
2023-03-19T05:37:44.004Z,1.92
2023-03-19T05:40:12.351Z,2.04
2023-03-19T05:42:38.921Z,2.14
2023-03-19T05:45:05.687Z,2.22
2023-03-19T05:47:32.245Z,2.26
2023-03-19T05:49:58.727Z,2.21
2023-03-19T05:52:25.299Z,2.25
2023-03-19T05:54:52.038Z,2.29
2023-03-19T05:57:18.555Z,2.38
2023-03-19T05:59:45.067Z,2.39
2023-03-19T06:02:12.145Z,2.36
2023-03-19T06:04:38.665Z,2.50
2023-03-19T06:07:06.113Z,2.69
2023-03-19T06:09:32.774Z,2.83
2023-03-19T06:11:59.283Z,3.03
2023-03-19T06:14:26.104Z,3.25
2023-03-19T06:16:52.668Z,3.47
2023-03-19T06:19:19.160Z,3.73
2023-03-19T06:21:45.707Z,3.97
2023-03-19T06:24:12.229Z,4.13
2023-03-19T06:26:38.893Z,4.15
2023-03-19T06:29:06.154Z,4.27
2023-03-19T06:31:32.870Z,4.39
2023-03-19T06:33:59.483Z,4.37
2023-03-19T06:36:26.211Z,4.50
2023-03-19T06:38:52.737Z,4.86
2023-03-19T06:41:19.285Z,5.20
2023-03-19T06:43:46.261Z,5.58
2023-03-19T06:46:13.055Z,5.85
2023-03-19T06:48:39.657Z,6.03
2023-03-19T06:51:06.855Z,6.19
2023-03-19T06:53:33.731Z,6.27
2023-03-19T06:56:00.468Z,6.29
2023-03-19T06:58:27.194Z,6.32
2023-03-19T07:00:53.723Z,6.53
2023-03-19T07:03:20.654Z,6.53
2023-03-19T07:05:50.236Z,6.53
2023-03-19T07:08:16.923Z,6.73
2023-03-19T07:10:43.410Z,6.65
2023-03-19T07:13:10.229Z,6.58
2023-03-19T07:15:36.770Z,6.59
2023-03-19T07:18:03.427Z,6.56
2023-03-19T07:20:29.976Z,6.74
2023-03-19T07:22:56.516Z,7.10
2023-03-19T07:25:23.054Z,7.69
2023-03-19T07:27:49.594Z,7.99
2023-03-19T07:30:16.420Z,8.15
2023-03-19T07:32:43.135Z,8.25
2023-03-19T07:35:10.630Z,8.25
2023-03-19T07:37:37.320Z,8.33
2023-03-19T07:40:05.211Z,8.31
2023-03-19T07:42:31.912Z,8.38
2023-03-19T07:44:58.442Z,8.63
2023-03-19T07:47:29.552Z,8.89
2023-03-19T07:49:57.143Z,8.95
2023-03-19T07:52:25.206Z,9.06
2023-03-19T07:54:52.355Z,9.10
2023-03-19T07:57:19.532Z,9.22
2023-03-19T07:59:46.494Z,9.35
2023-03-19T08:02:13.580Z,9.46
2023-03-19T08:04:40.556Z,9.44
2023-03-19T08:07:10.365Z,9.49
2023-03-19T08:09:37.552Z,9.54
2023-03-19T08:12:05.003Z,9.77
2023-03-19T08:14:31.483Z,9.97
2023-03-19T08:16:58.027Z,10.31
2023-03-19T08:19:24.616Z,10.85
2023-03-19T08:21:53.639Z,11.30
2023-03-19T08:24:20.255Z,11.59
2023-03-19T08:26:46.787Z,11.96
2023-03-19T08:29:13.446Z,12.23
2023-03-19T08:31:39.981Z,12.38
2023-03-19T08:34:10.297Z,12.88
2023-03-19T08:36:36.862Z,13.31
2023-03-19T08:39:04.236Z,13.82
2023-03-19T08:41:31.300Z,14.01
2023-03-19T08:43:57.812Z,14.14
2023-03-19T08:46:24.442Z,14.32
2023-03-19T08:48:51.095Z,14.40
2023-03-19T08:51:17.616Z,15.02
2023-03-19T08:53:44.148Z,15.35
2023-03-19T08:56:10.753Z,15.54
2023-03-19T08:58:37.348Z,15.54
2023-03-19T09:01:07.124Z,15.99
2023-03-19T09:03:33.792Z,16.48
2023-03-19T09:06:01.922Z,16.32
2023-03-19T09:08:29.205Z,16.57
2023-03-19T09:10:56.626Z,16.84
2023-03-19T09:13:24.084Z,17.04
2023-03-19T09:15:51.353Z,17.29
2023-03-19T09:18:20.444Z,17.05
2023-03-19T09:20:47.687Z,16.70
2023-03-19T09:23:14.210Z,16.33
2023-03-19T09:25:41.183Z,16.03
2023-03-19T09:28:07.923Z,15.79
2023-03-19T09:30:34.713Z,15.61
2023-03-19T09:33:01.539Z,15.48
2023-03-19T09:35:31.332Z,15.51
2023-03-19T09:37:58.816Z,15.39
2023-03-19T09:40:30.277Z,14.97
2023-03-19T09:43:24.072Z,14.91
2023-03-19T09:45:50.874Z,15.14
2023-03-19T09:48:47.068Z,15.14
2023-03-19T09:51:35.039Z,15.11
2023-03-19T09:54:17.719Z,14.96
2023-03-19T09:56:44.242Z,15.00
2023-03-19T09:59:10.936Z,15.32
2023-03-19T10:01:45.448Z,15.86
2023-03-19T10:04:33.454Z,16.15
2023-03-19T10:07:12.853Z,16.11
2023-03-19T10:10:00.678Z,16.32
2023-03-19T10:12:48.890Z,16.18
2023-03-19T10:15:22.316Z,15.80
2023-03-19T10:17:54.955Z,15.36
2023-03-19T10:20:34.333Z,15.11
2023-03-19T10:23:23.549Z,15.72
2023-03-19T10:25:54.138Z,16.71
2023-03-19T10:28:22.345Z,17.37
2023-03-19T10:31:21.262Z,17.57
2023-03-19T10:34:08.005Z,17.64
2023-03-19T10:36:36.422Z,18.97
2023-03-19T10:39:06.891Z,20.33
2023-03-19T10:41:52.904Z,20.66
2023-03-19T10:44:33.270Z,20.64
2023-03-19T10:47:10.965Z,21.00
2023-03-19T10:49:38.034Z,21.75
2023-03-19T10:52:05.609Z,21.17
2023-03-19T10:54:32.132Z,21.06
2023-03-19T10:57:01.210Z,20.82
2023-03-19T10:59:30.418Z,20.17
2023-03-19T11:02:14.474Z,19.55
2023-03-19T11:04:41.043Z,19.50
2023-03-19T11:07:13.329Z,19.00
2023-03-19T11:09:42.252Z,18.31
2023-03-19T11:12:20.063Z,17.89
2023-03-19T11:14:52.457Z,17.48
2023-03-19T11:17:26.083Z,17.19
2023-03-19T11:19:55.564Z,17.40
2023-03-19T11:22:22.954Z,17.50
2023-03-19T11:24:50.879Z,17.65
2023-03-19T11:27:17.478Z,17.62
2023-03-19T11:29:45.413Z,17.29
2023-03-19T11:32:38.366Z,17.24
2023-03-19T11:35:15.986Z,17.43
2023-03-19T11:37:56.161Z,17.21
2023-03-19T11:40:37.550Z,17.11
2023-03-19T11:43:25.338Z,17.68
2023-03-19T11:46:29.311Z,19.21
2023-03-19T11:49:10.403Z,18.16
2023-03-19T11:51:47.589Z,17.88
2023-03-19T11:54:33.403Z,18.66
2023-03-19T11:57:24.465Z,19.30
2023-03-19T11:59:56.704Z,20.26
2023-03-19T12:02:41.093Z,19.85
2023-03-19T12:05:20.974Z,19.42
2023-03-19T12:07:59.303Z,18.79
2023-03-19T12:11:00.302Z,18.58
2023-03-19T12:13:36.633Z,18.17
2023-03-19T12:16:14.043Z,18.26
2023-03-19T12:19:11.701Z,18.57
2023-03-19T12:22:11.604Z,18.36
2023-03-19T12:24:53.234Z,18.29
2023-03-19T12:27:32.280Z,18.72
2023-03-19T12:30:30.721Z,19.01
2023-03-19T12:33:25.161Z,21.13
2023-03-19T12:35:56.343Z,21.66
2023-03-19T12:38:40.011Z,24.49
2023-03-19T12:41:12.952Z,26.53
2023-03-19T12:43:49.384Z,27.20
2023-03-19T12:46:25.432Z,28.34
2023-03-19T12:49:07.421Z,28.18
2023-03-19T12:51:40.562Z,28.94
2023-03-19T12:54:21.318Z,28.68
2023-03-19T12:56:53.547Z,29.05
2023-03-19T12:59:29.447Z,28.99
2023-03-19T13:02:17.398Z,28.99
2023-03-19T13:04:59.882Z,29.14
2023-03-19T13:07:35.000Z,29.03
2023-03-19T13:10:11.112Z,28.83
2023-03-19T13:12:38.558Z,27.26
2023-03-19T13:15:20.599Z,26.54
2023-03-19T13:18:17.199Z,27.99
2023-03-19T13:21:02.308Z,27.32
2023-03-19T13:23:34.127Z,25.38
2023-03-19T13:26:04.645Z,24.83
2023-03-19T13:28:59.428Z,24.23
2023-03-19T13:31:34.859Z,24.24
2023-03-19T13:34:07.781Z,23.95
2023-03-19T13:36:41.567Z,24.82
2023-03-19T13:39:18.482Z,26.62
2023-03-19T13:41:44.919Z,25.70
2023-03-19T13:44:39.782Z,24.42
2023-03-19T13:47:28.808Z,22.88
2023-03-19T13:50:19.989Z,21.34
2023-03-19T13:52:50.837Z,20.68
2023-03-19T13:55:30.017Z,21.01
2023-03-19T13:58:34.234Z,22.44
2023-03-19T14:01:01.311Z,23.70
2023-03-19T14:03:37.067Z,23.45
2023-03-19T14:06:04.134Z,22.39
2023-03-19T14:08:47.238Z,22.71
2023-03-19T14:11:23.956Z,22.90
2023-03-19T14:13:53.007Z,22.12
2023-03-19T14:16:25.303Z,21.37
2023-03-19T14:18:57.314Z,20.85
2023-03-19T14:21:46.859Z,20.43
2023-03-19T14:27:33.190Z,18.89
2023-03-19T14:30:11.120Z,18.49
2023-03-19T14:32:42.354Z,18.12
2023-03-19T14:35:16.708Z,18.02
2023-03-19T14:37:49.077Z,18.04
2023-03-19T14:40:25.875Z,18.02
2023-03-19T14:43:05.063Z,18.08
2023-03-19T14:45:59.767Z,18.13
2023-03-19T14:48:58.341Z,18.11
2023-03-19T14:51:36.822Z,18.27
2023-03-19T14:54:36.046Z,18.17
2023-03-19T14:57:28.069Z,18.05
2023-03-19T14:59:55.707Z,17.79
2023-03-19T15:02:41.906Z,17.60
2023-03-19T15:05:26.739Z,17.48
2023-03-19T15:07:56.753Z,17.30
2023-03-19T15:10:30.024Z,17.20
2023-03-19T15:13:19.607Z,16.89
2023-03-19T15:16:10.453Z,16.68
2023-03-19T15:18:37.796Z,16.41
2023-03-19T15:21:05.958Z,16.35
2023-03-19T15:23:32.931Z,16.29
2023-03-19T15:26:03.128Z,16.39
2023-03-19T15:28:34.491Z,16.42
2023-03-19T15:31:26.224Z,16.43
2023-03-19T15:33:53.411Z,16.44
2023-03-19T15:36:30.224Z,16.54
2023-03-19T15:39:07.696Z,16.56
2023-03-19T15:41:40.482Z,16.58
2023-03-19T15:44:15.633Z,16.53
2023-03-19T15:46:44.716Z,16.38
2023-03-19T15:49:17.263Z,16.29
2023-03-19T15:51:46.849Z,16.19
2023-03-19T15:54:13.442Z,15.98
2023-03-19T15:56:40.075Z,15.79
2023-03-19T15:59:06.815Z,15.59
2023-03-19T16:01:34.545Z,15.54
2023-03-19T16:04:12.750Z,15.42
2023-03-19T16:06:40.332Z,15.37
2023-03-19T16:09:12.955Z,15.26
2023-03-19T16:11:42.404Z,15.17
2023-03-19T16:14:23.019Z,15.08
2023-03-19T16:16:49.948Z,15.00
2023-03-19T16:19:37.577Z,14.90
2023-03-19T16:22:16.741Z,14.75
2023-03-19T16:24:46.252Z,14.61
2023-03-19T16:27:21.551Z,14.48
2023-03-19T16:29:56.912Z,14.38
2023-03-19T16:32:28.617Z,14.23
2023-03-19T16:35:16.312Z,14.13
2023-03-19T16:37:47.226Z,14.00
2023-03-19T16:40:13.752Z,13.90
2023-03-19T16:42:50.857Z,13.83
2023-03-19T16:45:17.733Z,13.74
2023-03-19T16:47:49.883Z,13.65
2023-03-19T16:50:18.025Z,13.56
2023-03-19T16:52:46.175Z,13.46
2023-03-19T16:55:20.820Z,13.37
2023-03-19T16:57:54.796Z,13.25
2023-03-19T17:00:22.385Z,13.12
2023-03-19T17:02:49.352Z,13.02
2023-03-19T17:05:16.909Z,12.91
2023-03-19T17:07:43.609Z,12.81
2023-03-19T17:10:16.892Z,12.65
2023-03-19T17:12:46.204Z,12.54
2023-03-19T17:15:18.443Z,12.39
2023-03-19T17:17:44.958Z,12.27
2023-03-19T17:20:18.219Z,12.13
2023-03-19T17:22:44.793Z,11.99
2023-03-19T17:25:18.125Z,11.86
2023-03-19T17:27:45.771Z,11.75
2023-03-19T17:30:13.285Z,11.63
2023-03-19T17:32:43.513Z,11.51
2023-03-19T17:35:19.310Z,11.43
2023-03-19T17:37:46.334Z,11.35
2023-03-19T17:40:19.956Z,11.25
2023-03-19T17:42:46.918Z,11.11
2023-03-19T17:45:15.391Z,11.01
2023-03-19T17:47:46.424Z,10.93
2023-03-19T17:50:33.247Z,10.82
2023-03-19T17:53:00.460Z,10.70
2023-03-19T17:55:29.636Z,10.57
2023-03-19T17:57:56.819Z,10.48
2023-03-19T18:00:24.813Z,10.40
2023-03-19T18:02:54.089Z,10.36
2023-03-19T18:05:23.440Z,10.32
2023-03-19T18:07:52.993Z,10.26
2023-03-19T18:10:27.447Z,10.17
2023-03-19T18:12:54.710Z,10.12
2023-03-19T18:15:22.400Z,10.06
2023-03-19T18:17:51.772Z,10.02
2023-03-19T18:20:21.432Z,9.95
2023-03-19T18:22:48.377Z,9.85
2023-03-19T18:25:20.532Z,9.80
2023-03-19T18:27:48.085Z,9.78
2023-03-19T18:30:17.909Z,9.69
2023-03-19T18:32:47.914Z,9.54
2023-03-19T18:35:17.400Z,9.58
2023-03-19T18:37:46.918Z,9.53
2023-03-19T18:40:19.814Z,9.42
2023-03-19T18:42:46.967Z,9.30
2023-03-19T18:45:15.172Z,9.20
2023-03-19T18:47:42.859Z,9.12
2023-03-19T18:50:35.818Z,9.03
2023-03-19T18:53:02.450Z,8.94
2023-03-19T18:55:31.096Z,8.88
2023-03-19T18:58:02.832Z,8.88
2023-03-19T19:00:35.005Z,8.88
2023-03-19T19:03:02.768Z,8.91
2023-03-19T19:05:32.463Z,8.86
2023-03-19T19:08:02.902Z,8.86
2023-03-19T19:10:34.728Z,8.82
2023-03-19T19:13:02.234Z,8.79
2023-03-19T19:15:36.413Z,8.79
2023-03-19T19:18:25.390Z,8.76
2023-03-19T19:20:53.660Z,8.73
2023-03-19T19:23:21.798Z,8.72
2023-03-19T19:25:52.067Z,8.76
2023-03-19T19:28:30.618Z,8.74
2023-03-19T19:30:59.609Z,8.65
2023-03-19T19:33:31.673Z,8.59
2023-03-19T19:35:58.199Z,8.55
2023-03-19T19:38:24.904Z,8.50
2023-03-19T19:40:54.794Z,8.46
2023-03-19T19:43:24.189Z,8.44
2023-03-19T19:45:53.764Z,8.39
2023-03-19T19:48:24.590Z,8.32
2023-03-19T19:50:52.002Z,8.26
2023-03-19T19:53:19.368Z,8.23
2023-03-19T19:55:46.476Z,8.26
2023-03-19T19:58:25.588Z,8.23
2023-03-19T20:01:02.969Z,8.15
2023-03-19T20:03:32.397Z,8.15
2023-03-19T20:06:00.800Z,8.13
2023-03-19T20:08:28.569Z,8.15
2023-03-19T20:10:56.096Z,8.15
2023-03-19T20:13:22.798Z,8.13
2023-03-19T20:15:50.252Z,8.14
2023-03-19T20:18:19.611Z,8.08
2023-03-19T20:20:46.713Z,7.98
2023-03-19T20:23:15.165Z,7.94
2023-03-19T20:25:43.182Z,7.94
2023-03-19T20:28:20.886Z,7.81
2023-03-19T20:30:47.467Z,7.70
2023-03-19T20:33:14.162Z,7.64
2023-03-19T20:35:41.081Z,7.59
2023-03-19T20:38:07.765Z,7.57
2023-03-19T20:40:39.553Z,7.49
2023-03-19T20:43:07.750Z,7.40
2023-03-19T20:45:36.345Z,7.29
2023-03-19T20:48:03.945Z,7.22
2023-03-19T20:50:32.850Z,7.10
2023-03-19T20:53:03.556Z,6.99
2023-03-19T20:55:32.150Z,6.97
2023-03-19T20:57:59.069Z,6.96
2023-03-19T21:00:25.764Z,6.94
2023-03-19T21:02:55.326Z,6.88
2023-03-19T21:05:23.773Z,6.80
2023-03-19T21:07:53.351Z,6.81
2023-03-19T21:10:23.951Z,6.77
2023-03-19T21:12:50.809Z,6.73
2023-03-19T21:15:17.689Z,6.71
2023-03-19T21:17:44.315Z,6.65
2023-03-19T21:20:31.934Z,6.55
2023-03-19T21:22:58.705Z,6.51
2023-03-19T21:25:29.320Z,6.46
2023-03-19T21:28:03.534Z,6.38
2023-03-19T21:30:30.384Z,6.36
2023-03-19T21:32:57.274Z,6.25
2023-03-19T21:35:26.010Z,6.19
2023-03-19T21:37:53.041Z,6.15
2023-03-19T21:40:28.020Z,6.09
2023-03-19T21:43:02.101Z,6.04
2023-03-19T21:45:32.620Z,6.01
2023-03-19T21:48:05.339Z,5.94
2023-03-19T21:50:31.872Z,5.89
2023-03-19T21:53:01.408Z,5.84
2023-03-19T21:55:29.704Z,5.84
2023-03-19T21:57:57.478Z,5.80
2023-03-19T22:00:24.562Z,5.78
2023-03-19T22:02:51.262Z,5.76
2023-03-19T22:05:26.433Z,5.71
2023-03-19T22:07:53.989Z,5.65
2023-03-19T22:10:22.925Z,5.65
2023-03-19T22:12:49.999Z,5.62
2023-03-19T22:15:18.137Z,5.60
2023-03-19T22:17:44.670Z,5.58
2023-03-19T22:20:19.945Z,5.62
2023-03-19T22:22:46.589Z,5.61
2023-03-19T22:25:15.473Z,5.55
2023-03-19T22:27:42.701Z,5.46
2023-03-19T22:30:20.228Z,5.45
2023-03-19T22:32:47.306Z,5.44
2023-03-19T22:35:20.006Z,5.41
2023-03-19T22:37:46.407Z,5.37
2023-03-19T22:40:13.927Z,5.30
2023-03-19T22:42:42.381Z,5.22
2023-03-19T22:45:41.275Z,5.23
2023-03-19T22:48:08.503Z,5.30
2023-03-19T22:50:34.943Z,5.22
2023-03-19T22:53:02.050Z,5.22
2023-03-19T22:55:28.426Z,5.19
2023-03-19T22:57:54.924Z,5.30
2023-03-19T23:00:23.746Z,5.37
2023-03-19T23:02:56.824Z,5.47
2023-03-19T23:05:25.639Z,5.52
2023-03-19T23:07:53.343Z,5.64
2023-03-19T23:10:20.199Z,5.79
2023-03-19T23:12:47.538Z,5.87
2023-03-19T23:15:14.035Z,6.02
2023-03-19T23:17:42.190Z,6.16
2023-03-19T23:20:13.933Z,6.29
2023-03-19T23:22:41.284Z,6.35
2023-03-19T23:25:15.031Z,6.40
2023-03-19T23:27:43.137Z,6.43
2023-03-19T23:30:22.980Z,6.46
2023-03-19T23:32:49.755Z,6.47
2023-03-19T23:35:19.266Z,6.50
2023-03-19T23:37:46.367Z,6.57
2023-03-19T23:40:14.758Z,6.61
2023-03-19T23:42:45.718Z,6.68
2023-03-19T23:45:39.972Z,6.73
2023-03-19T23:48:11.450Z,6.77
2023-03-19T23:50:38.383Z,6.82
2023-03-19T23:53:05.424Z,6.88
2023-03-19T23:55:33.023Z,6.92
2023-03-19T23:58:01.376Z,6.97
